Aérodrome :
LOGIN :

S'inscrire | Disclaimer

   EN    FR    IT 

 










Légende :    VFR   VFR Marginal   IFR   IFR Intensif   IFR Très Intensif
Visi : 
Plafond : 
>= 8 km
>= 3000ft
5 à 8 km
1000 à 3000 ft
1500m à 5 km
500 à 1000 ft
800 à 1500m
200 à 500 ft
< 800m
< 200 ft
Symboles :   Orages  Brouillard  Fortes neiges  Fortes précipitations  Vent > 20 kt
SIGMETs :   Divers  Orages  Givrage  Turbulence  Onde Orograph.  Cendres Volcan.







- Altitude de l'aérodrome : 1079 ft


ETIK - Illesheim Air Base

DERNIER METAR :
  • 141756Z AUTO 07004KT 9999 OVC028 M01/M04 A3019 RMK AO2 SLP245 T10091044 11006 21009 52012 $

METARs EXPIRÉS :
  • 141656Z AUTO 06005KT 9999 OVC028 M01/M05 A3018 RMK AO2 SLP242 T10091046 $
  • 141556Z AUTO 06004KT 9999 OVC028 M01/M05 A3017 RMK AO2 SLP239 T10081050 $

TAF TAF ETIK
Valide du 14 à 14h jusqu'au 15 à 20h UTC


141402Z 1414/1520 VRB06KT 9999 OVC025 QNH3013INS
BECMG 1422/1423 VRB06KT 9999 BKN023 620231 QNH3014INS
BECMG 1515/1516 VRB06KT 9999 SCT023 QNH3018INS TX00/1511Z TNM01/1505Z LAST NO AMDS AFT 1417 NEXT 1706
Pas de NOTAMs connus pour ce terrain.



MET'MAP, la Météo Aéronautique d'un coup d'oeil ! - Copyright ORBIFLY Décembre 2007 - Disclaimer

ORBIFLY MET'MAP TEAM :

Programmation & Développement : Alexandra Zaïnal
Conception & Développement : Baudouin d'Aumeries
Co-Programmation & Développement : Marc-Olivier Méhu
Soutien technique & logistique : Manuel Goepfert

Contact : metmap@orbifly.com




SOURCES & CREDITS :

   NOAA